Huvudsida
METAR-TAF:

METAR-TAF

Flygplatser :

Oran-Es Sénias flygplats

Oran, Algeriet

latitud: 35-38N, longitud: 000-36W, höjd: 90 m

Aktuellt väderrapport

Denna rapport gjordes för 17 minuter sedan, klockan 05:00 UTC
Vind 1 kt från ost/nordost
Temperatur 22°C
Fuktighet 78%
Tryck 1018 hPa
Sikt 10 km eller mer
Inga moln under 1 500 m eller inga cumulonimbus

METAR: DAOO 230500Z 06001KT CAVOK 22/18 Q1018

Tid: 06:17 (05:17 UTC)

Väderprognos

Denna rapport gjordes för 6 timmar och 17 minuter sedan, klockan 23:00 UTC
Prognos gäller från 23 kl. 00 UTC till 23 kl. 24 UTC
Vind 2 kt varierande vindriktning
Sikt 10 km eller mer
Inga moln under 1 500 m eller inga cumulonimbus
Sannolikhet 30% :
Temporärt
från 23 kl. 03 UTC till 23 kl. 07 UTC
Sikt: 3000 m
Spridda moln på en höjd av 1000 ft
fuktdis
Blir
från 23 kl. 09 UTC till 23 kl. 12 UTC
Vind 12 kt från nord/nordost

TAF: DAOO 222300Z 2300/2324 VRB02KT CAVOK PROB30 TEMPO 2303/2307 3000 BR SCT010 BECMG 2309/2312 02012KT

Aktuella väderrapporter och prognoser från 4000 flygplatser (METAR- och TAF-rapporter).

De tillgängliga stationerna syns som gula och röda prickar på kartan.

För musen över prickarna för att se namnen på stationerna.

Klicka sedan för att få väderrapporter och prognoser.

För att ändra kartan: Klicka på de gröna knapparna med ett svart kors på för att zooma in; den gröna knappen med ett streck på för att zooma ut; eller på de gröna pilarna för angränsande kartor.


METAR-TAF: